Time;durP1;ratioP1;P1;durP2;ratioP2;P2;SDS_P1;SDS_P2;PMS_P1;PMS_P2;Temp;Humidity;BMP_temperature;BMP_pressure;BME280_temperature;BME280_humidity;BME280_pressure;Samples;Min_cycle;Max_cycle;Signal;HPM_P1;HPM_P2
2021/12/17 00:07:13;;;;;;;17.20;8.57;;;;;;;-2.14;100.00;99843.09;1601096;90;21103;-68
2021/12/17 00:09:40;;;;;;;18.07;8.43;;;;;;;-2.14;100.00;99838.64;1601781;89;21556;-67
2021/12/17 00:12:10;;;;;;;18.43;8.43;;;;;;;-2.14;100.00;99840.45;1601396;89;21110;-66
2021/12/17 00:14:39;;;;;;;16.83;8.67;;;;;;;-2.15;100.00;99832.95;1601760;90;21074;-68
2021/12/17 00:17:11;;;;;;;20.00;9.50;;;;;;;-2.11;100.00;99832.28;1601521;88;21086;-67
2021/12/17 00:46:31;;;;;;;14.47;6.77;;;;;;;-2.03;100.00;99799.55;1622609;88;21500;-66
2021/12/17 00:49:31;;;;;;;16.27;7.10;;;;;;;-2.05;100.00;99793.50;1622680;88;21543;-67
2021/12/17 00:52:00;;;;;;;17.13;7.30;;;;;;;-2.04;100.00;99794.34;1622437;88;21086;-68
2021/12/17 00:54:36;;;;;;;19.27;8.17;;;;;;;-2.09;100.00;99788.00;1622352;88;21042;-67
2021/12/17 00:57:18;;;;;;;16.03;7.47;;;;;;;-2.10;100.00;99783.66;1622530;88;21042;-67
2021/12/17 00:59:50;;;;;;;14.53;7.15;;;;;;;-2.11;100.00;99781.95;1571525;91;21116;-67
2021/12/17 01:02:22;;;;;;;19.20;8.30;;;;;;;-2.11;100.00;99776.65;1579237;91;21112;-67
2021/12/17 01:04:53;;;;;;;17.55;8.08;;;;;;;-2.09;100.00;99768.12;1579352;91;21137;-67
2021/12/17 01:07:22;;;;;;;15.43;7.63;;;;;;;-2.02;100.00;99767.27;1579541;91;21615;-67
2021/12/17 01:09:50;;;;;;;15.43;7.20;;;;;;;-1.98;100.00;99757.72;1579742;90;21065;-70
2021/12/17 01:12:18;;;;;;;13.83;6.63;;;;;;;-1.95;100.00;99757.52;1584407;91;21065;-68
2021/12/17 01:15:00;;;;;;;15.20;7.83;;;;;;;-1.92;100.00;99744.05;1597194;90;21109;-67
2021/12/17 01:17:50;;;;;;;13.30;7.00;;;;;;;-1.92;100.00;99743.22;1597414;90;21124;-68
2021/12/17 01:23:32;;;;;;;14.03;6.87;;;;;;;-1.89;100.00;99730.22;1560314;92;21569;-66
2021/12/17 01:37:48;;;;;;;15.23;7.10;;;;;;;-1.72;100.00;99707.45;1531809;94;21130;-67
2021/12/17 01:42:43;;;;;;;12.63;6.63;;;;;;;-1.72;100.00;99665.91;1531995;94;21105;-68
2021/12/17 01:45:10;;;;;;;14.23;7.23;;;;;;;-1.69;100.00;99663.52;1531804;94;21159;-68
2021/12/17 01:47:37;;;;;;;12.70;6.73;;;;;;;-1.73;100.00;99648.29;1531777;94;21057;-67
2021/12/17 02:00:56;;;;;;;15.33;7.67;;;;;;;-1.67;100.00;99633.77;1511524;95;21104;-67
2021/12/17 02:03:25;;;;;;;13.77;7.20;;;;;;;-1.64;100.00;99628.27;1511200;94;21138;-67
2021/12/17 02:05:52;;;;;;;16.23;7.93;;;;;;;-1.64;100.00;99616.83;1511318;95;21068;-67
2021/12/17 02:08:20;;;;;;;14.17;7.60;;;;;;;-1.63;100.00;99610.55;1511067;95;21126;-67
2021/12/17 02:32:17;;;;;;;14.03;7.40;;;;;;;-1.43;100.00;99549.54;1521289;94;21101;-67
2021/12/17 02:35:08;;;;;;;13.73;7.27;;;;;;;-1.42;100.00;99544.10;1576536;88;21564;-69
2021/12/17 02:37:24;;;;;;;15.87;7.87;;;;;;;-1.39;100.00;99544.38;1622757;88;21093;-68
2021/12/17 02:45:33;;;;;;;14.43;7.60;;;;;;;-1.27;100.00;99532.08;1624361;88;21070;-67
2021/12/17 02:48:10;;;;;;;13.53;7.30;;;;;;;-1.25;100.00;99531.48;1624450;88;21109;-67
2021/12/17 02:50:44;;;;;;;15.67;7.80;;;;;;;-1.27;100.00;99525.45;1624437;88;21105;-66
2021/12/17 02:53:11;;;;;;;15.17;8.27;;;;;;;-1.22;100.00;99524.61;1581102;90;21046;-68
2021/12/17 02:55:41;;;;;;;15.00;7.63;;;;;;;-1.21;100.00;99521.02;1580610;91;21136;-67
2021/12/17 02:58:08;;;;;;;14.10;7.37;;;;;;;-1.18;100.00;99518.16;1580670;91;21054;-68
2021/12/17 03:00:37;;;;;;;15.57;7.67;;;;;;;-1.16;100.00;99513.58;1580634;91;21054;-68
2021/12/17 03:03:06;;;;;;;13.67;7.73;;;;;;;-1.13;100.00;99514.70;1580463;91;21086;-68
2021/12/17 03:05:34;;;;;;;14.57;7.20;;;;;;;-1.09;100.00;99508.69;1580641;91;21063;-68
2021/12/17 03:08:00;;;;;;;14.90;7.53;;;;;;;-1.10;100.00;99505.66;1580508;91;21136;-68
2021/12/17 03:10:27;;;;;;;13.53;7.17;;;;;;;-1.11;100.00;99511.94;1600285;87;21045;-69
2021/12/17 03:13:01;;;;;;;11.60;6.87;;;;;;;-1.12;100.00;99496.96;1644287;86;21085;-67
2021/12/17 03:15:35;;;;;;;13.27;7.00;;;;;;;-1.10;100.00;99501.67;1659620;86;21023;-68
2021/12/17 03:18:32;;;;;;;12.57;6.67;;;;;;;-1.10;100.00;99493.72;1659678;86;21616;-68
2021/12/17 03:23:28;;;;;;;15.03;7.27;;;;;;;-1.05;100.00;99488.93;1659736;86;21044;-67
2021/12/17 03:25:56;;;;;;;14.00;6.87;;;;;;;-1.03;100.00;99479.05;1659528;86;21071;-68
2021/12/17 03:28:23;;;;;;;15.10;7.57;;;;;;;-0.99;100.00;99477.89;1659622;86;21059;-68
2021/12/17 03:30:50;;;;;;;17.20;8.00;;;;;;;-0.97;100.00;99476.80;1659758;86;21584;-68
2021/12/17 03:33:17;;;;;;;16.73;7.40;;;;;;;-0.92;100.00;99475.61;1659405;86;21067;-67
2021/12/17 03:35:44;;;;;;;18.17;8.50;;;;;;;-0.91;100.00;99472.01;1659716;86;21068;-67
2021/12/17 03:38:11;;;;;;;19.83;7.80;;;;;;;-0.88;100.00;99473.96;1659498;86;21540;-69
2021/12/17 03:40:40;;;;;;;17.03;7.93;;;;;;;-0.87;100.00;99465.02;1659670;86;21023;-68
2021/12/17 03:43:12;;;;;;;15.10;7.17;;;;;;;-0.84;100.00;99465.30;1659710;86;21206;-69
2021/12/17 03:45:36;;;;;;;17.80;7.97;;;;;;;-0.87;100.00;99458.38;1659670;86;21087;-68
2021/12/17 03:48:06;;;;;;;15.60;7.33;;;;;;;-0.85;100.00;99456.95;1659188;86;21623;-67
2021/12/17 03:50:36;;;;;;;15.93;7.17;;;;;;;-0.86;100.00;99452.13;1664457;86;20998;-67
2021/12/17 03:53:06;;;;;;;17.17;8.50;;;;;;;-0.84;100.00;99453.34;1665689;86;21033;-68
2021/12/17 03:55:33;;;;;;;16.03;7.50;;;;;;;-0.81;100.00;99449.15;1632744;88;21045;-68
2021/12/17 03:58:01;;;;;;;16.77;7.53;;;;;;;-0.78;100.00;99447.57;1632624;88;21069;-68
2021/12/17 04:00:30;;;;;;;16.17;7.97;;;;;;;-0.77;100.00;99445.30;1632671;88;21010;-68
2021/12/17 04:02:58;;;;;;;14.53;7.50;;;;;;;-0.78;100.00;99446.24;1623285;88;21057;-68
2021/12/17 04:05:41;;;;;;;15.73;8.27;;;;;;;-0.79;100.00;99446.73;1607202;89;21273;-68
2021/12/17 04:08:19;;;;;;;15.33;7.53;;;;;;;-0.79;100.00;99444.08;1604106;89;21050;-66
2021/12/17 04:11:07;;;;;;;14.43;7.60;;;;;;;-0.75;100.00;99441.20;1608398;89;21082;-68
2021/12/17 04:13:38;;;;;;;13.57;7.27;;;;;;;-0.78;100.00;99443.13;1621065;87;21075;-68
2021/12/17 04:16:09;;;;;;;18.10;8.60;;;;;;;-0.79;100.00;99436.60;1623527;88;21060;-66
2021/12/17 04:18:40;;;;;;;19.17;9.20;;;;;;;-0.78;100.00;99439.61;1623727;88;21068;-68
2021/12/17 04:21:13;;;;;;;18.17;10.03;;;;;;;-0.79;100.00;99435.27;1623786;88;21578;-68
2021/12/17 04:23:37;;;;;;;20.17;10.50;;;;;;;-0.80;100.00;99430.45;1574440;90;21076;-69
2021/12/17 04:26:04;;;;;;;21.23;12.00;;;;;;;-0.79;100.00;99429.97;1573867;91;21539;-68
2021/12/17 04:28:31;;;;;;;20.27;11.20;;;;;;;-0.79;100.00;99430.80;1594933;90;21080;-67
2021/12/17 04:30:59;;;;;;;21.50;12.87;;;;;;;-0.77;100.00;99424.89;1574063;91;21080;-68
2021/12/17 04:33:26;;;;;;;20.07;11.47;;;;;;;-0.78;100.00;99424.55;1595390;90;21068;-68
2021/12/17 04:35:57;;;;;;;20.20;10.97;;;;;;;-0.76;100.00;99420.45;1573915;91;21077;-68
2021/12/17 04:38:26;;;;;;;18.13;10.30;;;;;;;-0.74;100.00;99418.53;1595290;90;21583;-67
2021/12/17 04:40:53;;;;;;;17.40;9.37;;;;;;;-0.75;100.00;99415.49;1574253;91;21531;-68
